Magnus Heinason — OW2252 — position and weather

sailwx.info

Track history (hours):
 
Tides and Currents Weather Stations Pressure Air Temp Water Temp Dewpoint Dewpoint Depression Visibility Wind Speed Wind Dir Waves Ship Positions

Oceanographic research ship Magnus Heinason (Faroe Islands)

Detailed information on ship capabilities available from ARCUS's ALIAS (Arctic Logistics Information and Support) project.

Last reported at 2014-Oct-21 09:33 UTC. Time now 2014-Oct-21 10:25 UTC.
Position N 62°10' W 006°09'.

Length 44 m; draft 4 m.

Type: . MMSI: 231041000.

Date/timePositionNaut miles runAvg speedWind from/ knotsBaromVisibWave heightAir tempDewpointWater temp
2014-Oct-21 09:33N 62°10' W 006°09'2 1.6
2014-Oct-21 08:33N 62°10' W 006°12'3 2.7
2014-Oct-21 07:33N 62°11' W 006°18'3 3.3
2014-Oct-21 06:33N 62°11' W 006°11'1 1.1
2014-Oct-21 05:33N 62°10' W 006°13'2 2.2
2014-Oct-21 04:33N 62°11' W 006°17'3 2.8
2014-Oct-21 03:33N 62°10' W 006°11'1 1.3
2014-Oct-21 02:33N 62°10' W 006°14'2 1.7
2014-Oct-21 01:33N 62°10' W 006°18'3 2.9
2014-Oct-21 00:33N 62°10' W 006°12'2 1.7
2014-Oct-20 23:33N 62°10' W 006°15'2 1.6
2014-Oct-20 22:33N 62°10' W 006°19'3 3.3
2014-Oct-20 21:33N 62°10' W 006°12'1 1.3
2014-Oct-20 20:33N 62°11' W 006°14'1 1.3
2014-Oct-20 19:33N 62°10' W 006°17'3 3.5
2014-Oct-20 18:33N 62°11' W 006°10'6 6.4
2014-Oct-20 17:33N 62°16' W 006°05'1 0.2
2014-Oct-20 11:05N 62°17' W 006°03'2 3.2
2014-Oct-20 10:32N 62°16' W 006°03'3 2.7
2014-Oct-20 09:33N 62°13' W 006°04'4 4.0
2014-Oct-20 08:33N 62°10' W 006°11'4 3.6
2014-Oct-20 07:33N 62°11' W 006°19'3 3.0
2014-Oct-20 06:34N 62°10' W 006°12'0 0.2
2014-Oct-20 05:33N 62°10' W 006°13'3 2.6
2014-Oct-20 04:33N 62°11' W 006°18'3 3.0
2014-Oct-20 03:33N 62°10' W 006°12'1 1.4
2014-Oct-20 02:33N 62°10' W 006°15'2 2.1
2014-Oct-20 01:33N 62°10' W 006°19'4 3.9
2014-Oct-20 00:33N 62°10' W 006°11'3 3.4
2014-Oct-19 23:33N 62°07' W 006°10'3 3.2
2014-Oct-19 22:33N 62°04' W 006°12'3 3.2
2014-Oct-19 21:33N 62°01' W 006°12'2 2.2
2014-Oct-19 20:33N 61°59' W 006°15'3 2.7
2014-Oct-19 19:33N 61°59' W 006°21'4 3.8
2014-Oct-19 18:33N 61°55' W 006°21'1 1.1
2014-Oct-19 17:33N 61°55' W 006°23'2 1.8
2014-Oct-19 16:33N 61°56' W 006°21'3 3.3
2014-Oct-19 15:33N 61°60' W 006°22'4 3.1
2014-Oct-19 14:26N 61°59' W 006°14'2 2.5
2014-Oct-19 13:33N 62°01' W 006°12'3 3.1
2014-Oct-19 12:33N 62°04' W 006°11'3 3.3
2014-Oct-19 11:33N 62°08' W 006°10'3 2.9
2014-Oct-19 10:33N 62°10' W 006°13'4 3.6
2014-Oct-19 09:33N 62°10' W 006°20'3 3.2
2014-Oct-19 08:33N 62°07' W 006°21'1 1.2
2014-Oct-19 07:33N 62°08' W 006°21'3 3.0
2014-Oct-19 06:33N 62°10' W 006°19'4 3.5
2014-Oct-19 05:33N 62°10' W 006°11'4 3.8
2014-Oct-19 04:33N 62°13' W 006°05'2 2.3
2014-Oct-19 03:33N 62°15' W 006°03'27 2.6
2014-Oct-18 17:15N 62°32' W 006°46'7 9.8
2014-Oct-18 16:33N 62°29' W 006°60'4 4.0
2014-Oct-18 15:33N 62°27' W 007°06'1 0.1
2014-Oct-18 10:21N 62°27' W 007°06'5 6.4
2014-Oct-18 09:33N 62°28' W 006°55'1 1.1
2014-Oct-18 08:33N 62°28' W 006°53'2 2.2
2014-Oct-18 07:33N 62°28' W 006°58'2 2.4
2014-Oct-18 06:30N 62°28' W 007°03'6 4.0
2014-Oct-18 05:03N 62°25' W 007°14'1 0.6
2014-Oct-18 02:23N 62°26' W 007°18'10 0.8
2014-Oct-17 14:33N 62°19' W 007°33'19 9.6
2014-Oct-17 12:32N 62°06' W 007°03'1010.1
2014-Oct-17 11:33N 61°56' W 007°05'8 8.5
2014-Oct-17 10:34N 61°47' W 007°09'4 3.6
2014-Oct-17 09:24N 61°43' W 007°05'3 2.8
2014-Oct-17 08:29N 61°45' W 007°09'1 0.7
2014-Oct-17 07:32N 61°46' W 007°08'3 3.2
2014-Oct-17 06:33N 61°43' W 007°05'3 3.4
2014-Oct-17 05:33N 61°46' W 007°09'0 0.3
2014-Oct-17 04:33N 61°46' W 007°09'2 1.9
2014-Oct-17 03:33N 61°44' W 007°07'3 3.4
2014-Oct-17 02:33N 61°47' W 007°10'2 2.2
2014-Oct-17 01:30N 61°45' W 007°08'1 1.5
2014-Oct-17 00:33N 61°44' W 007°06'3 3.2
2014-Oct-16 23:33N 61°47' W 007°09'2 1.9
2014-Oct-16 22:33N 61°45' W 007°07'2 1.8
2014-Oct-16 21:33N 61°43' W 007°06'4 3.5
2014-Oct-16 20:33N 61°46' W 007°09'2 1.7
2014-Oct-16 19:33N 61°45' W 007°07'3 2.7
2014-Oct-16 18:33N 61°43' W 007°05'4 3.7
2014-Oct-16 17:33N 61°46' W 007°07'2 1.6
2014-Oct-16 16:24N 61°44' W 007°06'0 0.5
2014-Oct-16 15:32N 61°44' W 007°06'3 3.4
2014-Oct-16 14:33N 61°47' W 007°09'3 2.9
2014-Oct-16 13:33N 61°44' W 007°06'0 0.5
2014-Oct-16 12:33N 61°45' W 007°07'2 1.9
2014-Oct-16 11:33N 61°47' W 007°08'4 3.6
2014-Oct-16 10:29N 61°43' W 007°05'2 2.2
2014-Oct-16 09:28N 61°45' W 007°06'0 0.1
2014-Oct-16 08:13N 61°45' W 007°07'3 3.8
2014-Oct-16 07:32N 61°43' W 007°04'2 1.9
2014-Oct-16 06:33N 61°44' W 007°06'1 0.7
2014-Oct-16 05:33N 61°45' W 007°07'3 3.3
2014-Oct-16 04:33N 61°42' W 007°04'3 3.2
2014-Oct-16 03:28N 61°45' W 007°07'1 0.8
2014-Oct-16 02:33N 61°46' W 007°07'3 3.0
2014-Oct-16 01:31N 61°43' W 007°05'1 1.5
2014-Oct-16 00:32N 61°44' W 007°06'3 2.8
2014-Oct-15 23:33N 61°47' W 007°08'7 7.3
2014-Oct-15 22:33N 61°53' W 007°02'9 9.0
2014-Oct-15 21:33N 61°56' W 006°43'4 4.4
2014-Oct-15 20:33N 62°00' W 006°46'0 0.0
2014-Oct-15 19:33N 62°00' W 006°46'0 0.0
2014-Oct-15 18:33N 62°00' W 006°46'0 0.0
2014-Oct-15 17:33N 62°00' W 006°46'0 0.0
2014-Oct-15 16:33N 62°00' W 006°46'0 0.0
2014-Oct-15 15:33N 62°00' W 006°46'0 0.0
2014-Oct-15 14:33N 62°00' W 006°46'0 0.0
2014-Oct-15 13:33N 62°00' W 006°46'0 0.1
2014-Oct-15 12:33N 62°00' W 006°46'0 0.2
2014-Oct-15 11:33N 62°00' W 006°46'0 0.0
2014-Oct-15 10:33N 62°00' W 006°46'0 0.0
2014-Oct-15 09:33N 62°00' W 006°46'0 0.0
2014-Oct-15 08:33N 62°00' W 006°46'0 0.0
2014-Oct-15 07:33N 62°00' W 006°46'0 0.0
2014-Oct-15 06:33N 62°00' W 006°46'0 0.0
2014-Oct-15 05:33N 62°00' W 006°46'0 0.0
2014-Oct-15 04:33N 62°00' W 006°46'0 0.0
2014-Oct-15 03:33N 62°00' W 006°46'0 0.0
2014-Oct-15 02:33N 62°00' W 006°46'0 0.0
2014-Oct-15 01:33N 62°00' W 006°46'0 0.0
2014-Oct-15 00:33N 62°00' W 006°46'0 0.0
2014-Oct-14 23:33N 62°00' W 006°46'0 0.0
2014-Oct-14 22:33N 62°00' W 006°46'0 0.0
2014-Oct-14 21:33N 62°00' W 006°46'0 0.0
2014-Oct-14 20:33N 62°00' W 006°46'0 0.0
2014-Oct-14 19:33N 62°00' W 006°46'0 0.0
2014-Oct-14 18:33N 62°00' W 006°46'0 0.0
2014-Oct-14 17:33N 62°00' W 006°46'0 0.0
2014-Oct-14 16:33N 62°00' W 006°46'0 0.0
2014-Oct-14 15:33N 62°00' W 006°46'0 0.0
2014-Oct-14 14:33N 62°00' W 006°46'0 0.0
2014-Oct-14 13:33N 62°00' W 006°46'0 0.0
2014-Oct-14 12:33N 62°00' W 006°46'0 0.0
2014-Oct-14 11:33N 62°00' W 006°46'0 0.0
2014-Oct-14 10:33N 62°00' W 006°46'0 0.0
2014-Oct-14 09:33N 62°00' W 006°46'0 0.0
2014-Oct-14 08:33N 62°00' W 006°46'0 0.0
2014-Oct-14 07:33N 62°00' W 006°46'0 0.0
2014-Oct-14 06:33N 62°00' W 006°46'0 0.0
2014-Oct-14 05:33N 62°00' W 006°46'0 0.0
2014-Oct-14 04:33N 62°00' W 006°46'0 0.0
2014-Oct-14 03:33N 62°00' W 006°46'0 0.0
2014-Oct-14 02:33N 62°00' W 006°46'0 0.0
2014-Oct-14 01:33N 62°00' W 006°46'0 0.0
2014-Oct-14 00:33N 62°00' W 006°46'0 0.0
2014-Oct-13 23:33N 62°00' W 006°46'0 0.0
2014-Oct-13 22:33N 62°00' W 006°46'0 0.0
2014-Oct-13 21:33N 62°00' W 006°46'0 0.0
2014-Oct-13 20:33N 62°00' W 006°46'0 0.0
2014-Oct-13 19:33N 62°00' W 006°46'0 0.0
2014-Oct-13 18:33N 62°00' W 006°46'0 0.0
2014-Oct-13 17:33N 62°00' W 006°46'0 0.0
2014-Oct-13 16:33N 62°00' W 006°46'0 0.0
2014-Oct-13 15:33N 62°00' W 006°46'0 0.0
2014-Oct-13 14:33N 62°00' W 006°46'0 0.0
2014-Oct-13 13:33N 62°00' W 006°46'0 0.0
2014-Oct-13 12:33N 62°00' W 006°46'0 0.0
2014-Oct-13 11:33N 62°00' W 006°46'0 0.0
2014-Oct-13 10:33N 62°00' W 006°46'0 0.0
2014-Oct-13 09:33N 62°00' W 006°46'0 0.0
2014-Oct-13 08:33N 62°00' W 006°46'0 0.0
2014-Oct-13 07:33N 62°00' W 006°46'0 0.0
2014-Oct-13 06:33N 62°00' W 006°46'0 0.0
2014-Oct-13 05:33N 62°00' W 006°46'0 0.0
2014-Oct-13 04:33N 62°00' W 006°46'0 0.0
2014-Oct-13 03:33N 62°00' W 006°46'0 0.0
2014-Oct-13 02:33N 62°00' W 006°46'0 0.0
2014-Oct-13 01:33N 62°00' W 006°46'0 0.0
2014-Oct-13 00:33N 62°00' W 006°46'0 0.0
2014-Oct-12 23:33N 62°00' W 006°46'0 0.0
2014-Oct-12 22:33N 62°00' W 006°46'0 0.0
2014-Oct-12 21:33N 62°00' W 006°46'0 0.0
2014-Oct-12 20:33N 62°00' W 006°46'0 0.0
2014-Oct-12 19:33N 62°00' W 006°46'0 0.0
2014-Oct-12 18:33N 62°00' W 006°46'0 0.0
2014-Oct-12 17:33N 62°00' W 006°46'0 0.0
2014-Oct-12 16:33N 62°00' W 006°46'0 0.0
2014-Oct-12 15:33N 62°00' W 006°46'0 0.0
2014-Oct-12 14:33N 62°00' W 006°46'0 0.0
2014-Oct-12 13:33N 62°00' W 006°46'0 0.0
2014-Oct-12 12:33N 62°00' W 006°46'0 0.0
2014-Oct-12 11:33N 62°00' W 006°46'0 0.0
2014-Oct-12 10:33N 62°00' W 006°46'0 0.0
2014-Oct-12 09:33N 62°00' W 006°46'0 0.0
2014-Oct-12 08:33N 62°00' W 006°46'0 0.0
2014-Oct-12 07:33N 62°00' W 006°46'0 0.0
2014-Oct-12 06:33N 62°00' W 006°46'0 0.0
2014-Oct-12 05:33N 62°00' W 006°46'0 0.0
2014-Oct-12 04:33N 62°00' W 006°46'0 0.0
2014-Oct-12 03:33N 62°00' W 006°46'0 0.0
2014-Oct-12 02:33N 62°00' W 006°46'0 0.0
2014-Oct-12 01:33N 62°00' W 006°46'0 0.0
2014-Oct-12 00:33N 62°00' W 006°46'0 0.0
2014-Oct-11 23:33N 62°00' W 006°46'0 0.0
2014-Oct-11 22:33N 62°00' W 006°46'0 0.0
2014-Oct-11 21:33N 62°00' W 006°46'0 0.0
2014-Oct-11 20:33N 62°00' W 006°46'0 0.0
2014-Oct-11 19:33N 62°00' W 006°46'0 0.0
2014-Oct-11 18:33N 62°00' W 006°46'0 0.0
2014-Oct-11 17:33N 62°00' W 006°46'0 0.0
2014-Oct-11 16:33N 62°00' W 006°46'0 0.0
2014-Oct-11 15:33N 62°00' W 006°46'0 0.0
2014-Oct-11 14:33N 62°00' W 006°46'0 0.0
2014-Oct-11 13:33N 62°00' W 006°46'0 0.0
2014-Oct-11 12:33N 62°00' W 006°46'0 0.0
2014-Oct-11 11:33N 62°00' W 006°46'0 0.0
2014-Oct-11 10:33N 62°00' W 006°46'0 0.0
2014-Oct-11 09:33N 62°00' W 006°46'  
Track history (hours):
 
Tides and Currents Weather Stations Pressure Air Temp Water Temp Dewpoint Dewpoint Depression Visibility Wind Speed Wind Dir Waves Ship Positions

Oceanographic research ship Magnus Heinason (Faroe Islands)

Detailed information on ship capabilities available from ARCUS's ALIAS (Arctic Logistics Information and Support) project.

Last reported at 2014-Oct-21 09:33 UTC. Time now 2014-Oct-21 10:25 UTC.
Position N 62°10' W 006°09'.

Length 44 m; draft 4 m.

Type: . MMSI: 231041000.

Date/timePositionNaut miles runAvg speedWind from/ knotsBaromVisibWave heightAir tempDewpointWater temp
2014-Oct-21 09:33N 62°10' W 006°09'2 1.6
2014-Oct-21 08:33N 62°10' W 006°12'3 2.7
2014-Oct-21 07:33N 62°11' W 006°18'3 3.3
2014-Oct-21 06:33N 62°11' W 006°11'1 1.1
2014-Oct-21 05:33N 62°10' W 006°13'2 2.2
2014-Oct-21 04:33N 62°11' W 006°17'3 2.8
2014-Oct-21 03:33N 62°10' W 006°11'1 1.3
2014-Oct-21 02:33N 62°10' W 006°14'2 1.7
2014-Oct-21 01:33N 62°10' W 006°18'3 2.9
2014-Oct-21 00:33N 62°10' W 006°12'2 1.7
2014-Oct-20 23:33N 62°10' W 006°15'2 1.6
2014-Oct-20 22:33N 62°10' W 006°19'3 3.3
2014-Oct-20 21:33N 62°10' W 006°12'1 1.3
2014-Oct-20 20:33N 62°11' W 006°14'1 1.3
2014-Oct-20 19:33N 62°10' W 006°17'3 3.5
2014-Oct-20 18:33N 62°11' W 006°10'6 6.4
2014-Oct-20 17:33N 62°16' W 006°05'1 0.2
2014-Oct-20 11:05N 62°17' W 006°03'2 3.2
2014-Oct-20 10:32N 62°16' W 006°03'3 2.7
2014-Oct-20 09:33N 62°13' W 006°04'4 4.0
2014-Oct-20 08:33N 62°10' W 006°11'4 3.6
2014-Oct-20 07:33N 62°11' W 006°19'3 3.0
2014-Oct-20 06:34N 62°10' W 006°12'0 0.2
2014-Oct-20 05:33N 62°10' W 006°13'3 2.6
2014-Oct-20 04:33N 62°11' W 006°18'3 3.0
2014-Oct-20 03:33N 62°10' W 006°12'1 1.4
2014-Oct-20 02:33N 62°10' W 006°15'2 2.1
2014-Oct-20 01:33N 62°10' W 006°19'4 3.9
2014-Oct-20 00:33N 62°10' W 006°11'3 3.4
2014-Oct-19 23:33N 62°07' W 006°10'3 3.2
2014-Oct-19 22:33N 62°04' W 006°12'3 3.2
2014-Oct-19 21:33N 62°01' W 006°12'2 2.2
2014-Oct-19 20:33N 61°59' W 006°15'3 2.7
2014-Oct-19 19:33N 61°59' W 006°21'4 3.8
2014-Oct-19 18:33N 61°55' W 006°21'1 1.1
2014-Oct-19 17:33N 61°55' W 006°23'2 1.8
2014-Oct-19 16:33N 61°56' W 006°21'3 3.3
2014-Oct-19 15:33N 61°60' W 006°22'4 3.1
2014-Oct-19 14:26N 61°59' W 006°14'2 2.5
2014-Oct-19 13:33N 62°01' W 006°12'3 3.1
2014-Oct-19 12:33N 62°04' W 006°11'3 3.3
2014-Oct-19 11:33N 62°08' W 006°10'3 2.9
2014-Oct-19 10:33N 62°10' W 006°13'4 3.6
2014-Oct-19 09:33N 62°10' W 006°20'3 3.2
2014-Oct-19 08:33N 62°07' W 006°21'1 1.2
2014-Oct-19 07:33N 62°08' W 006°21'3 3.0
2014-Oct-19 06:33N 62°10' W 006°19'4 3.5
2014-Oct-19 05:33N 62°10' W 006°11'4 3.8
2014-Oct-19 04:33N 62°13' W 006°05'2 2.3
2014-Oct-19 03:33N 62°15' W 006°03'27 2.6
2014-Oct-18 17:15N 62°32' W 006°46'7 9.8
2014-Oct-18 16:33N 62°29' W 006°60'4 4.0
2014-Oct-18 15:33N 62°27' W 007°06'1 0.1
2014-Oct-18 10:21N 62°27' W 007°06'5 6.4
2014-Oct-18 09:33N 62°28' W 006°55'1 1.1
2014-Oct-18 08:33N 62°28' W 006°53'2 2.2
2014-Oct-18 07:33N 62°28' W 006°58'2 2.4
2014-Oct-18 06:30N 62°28' W 007°03'6 4.0
2014-Oct-18 05:03N 62°25' W 007°14'1 0.6
2014-Oct-18 02:23N 62°26' W 007°18'10 0.8
2014-Oct-17 14:33N 62°19' W 007°33'19 9.6
2014-Oct-17 12:32N 62°06' W 007°03'1010.1
2014-Oct-17 11:33N 61°56' W 007°05'8 8.5
2014-Oct-17 10:34N 61°47' W 007°09'4 3.6
2014-Oct-17 09:24N 61°43' W 007°05'3 2.8
2014-Oct-17 08:29N 61°45' W 007°09'1 0.7
2014-Oct-17 07:32N 61°46' W 007°08'3 3.2
2014-Oct-17 06:33N 61°43' W 007°05'3 3.4
2014-Oct-17 05:33N 61°46' W 007°09'0 0.3
2014-Oct-17 04:33N 61°46' W 007°09'2 1.9
2014-Oct-17 03:33N 61°44' W 007°07'3 3.4
2014-Oct-17 02:33N 61°47' W 007°10'2 2.2
2014-Oct-17 01:30N 61°45' W 007°08'1 1.5
2014-Oct-17 00:33N 61°44' W 007°06'3 3.2
2014-Oct-16 23:33N 61°47' W 007°09'2 1.9
2014-Oct-16 22:33N 61°45' W 007°07'2 1.8
2014-Oct-16 21:33N 61°43' W 007°06'4 3.5
2014-Oct-16 20:33N 61°46' W 007°09'2 1.7
2014-Oct-16 19:33N 61°45' W 007°07'3 2.7
2014-Oct-16 18:33N 61°43' W 007°05'4 3.7
2014-Oct-16 17:33N 61°46' W 007°07'2 1.6
2014-Oct-16 16:24N 61°44' W 007°06'0 0.5
2014-Oct-16 15:32N 61°44' W 007°06'3 3.4
2014-Oct-16 14:33N 61°47' W 007°09'3 2.9
2014-Oct-16 13:33N 61°44' W 007°06'0 0.5
2014-Oct-16 12:33N 61°45' W 007°07'2 1.9
2014-Oct-16 11:33N 61°47' W 007°08'4 3.6
2014-Oct-16 10:29N 61°43' W 007°05'2 2.2
2014-Oct-16 09:28N 61°45' W 007°06'0 0.1
2014-Oct-16 08:13N 61°45' W 007°07'3 3.8
2014-Oct-16 07:32N 61°43' W 007°04'2 1.9
2014-Oct-16 06:33N 61°44' W 007°06'1 0.7
2014-Oct-16 05:33N 61°45' W 007°07'3 3.3
2014-Oct-16 04:33N 61°42' W 007°04'3 3.2
2014-Oct-16 03:28N 61°45' W 007°07'1 0.8
2014-Oct-16 02:33N 61°46' W 007°07'3 3.0
2014-Oct-16 01:31N 61°43' W 007°05'1 1.5
2014-Oct-16 00:32N 61°44' W 007°06'3 2.8
2014-Oct-15 23:33N 61°47' W 007°08'7 7.3
2014-Oct-15 22:33N 61°53' W 007°02'9 9.0
2014-Oct-15 21:33N 61°56' W 006°43'4 4.4
2014-Oct-15 20:33N 62°00' W 006°46'0 0.0
2014-Oct-15 19:33N 62°00' W 006°46'0 0.0
2014-Oct-15 18:33N 62°00' W 006°46'0 0.0
2014-Oct-15 17:33N 62°00' W 006°46'0 0.0
2014-Oct-15 16:33N 62°00' W 006°46'0 0.0
2014-Oct-15 15:33N 62°00' W 006°46'0 0.0
2014-Oct-15 14:33N 62°00' W 006°46'0 0.0
2014-Oct-15 13:33N 62°00' W 006°46'0 0.1
2014-Oct-15 12:33N 62°00' W 006°46'0 0.2
2014-Oct-15 11:33N 62°00' W 006°46'0 0.0
2014-Oct-15 10:33N 62°00' W 006°46'0 0.0
2014-Oct-15 09:33N 62°00' W 006°46'0 0.0
2014-Oct-15 08:33N 62°00' W 006°46'0 0.0
2014-Oct-15 07:33N 62°00' W 006°46'0 0.0
2014-Oct-15 06:33N 62°00' W 006°46'0 0.0
2014-Oct-15 05:33N 62°00' W 006°46'0 0.0
2014-Oct-15 04:33N 62°00' W 006°46'0 0.0
2014-Oct-15 03:33N 62°00' W 006°46'0 0.0
2014-Oct-15 02:33N 62°00' W 006°46'0 0.0
2014-Oct-15 01:33N 62°00' W 006°46'0 0.0
2014-Oct-15 00:33N 62°00' W 006°46'0 0.0
2014-Oct-14 23:33N 62°00' W 006°46'0 0.0
2014-Oct-14 22:33N 62°00' W 006°46'0 0.0
2014-Oct-14 21:33N 62°00' W 006°46'0 0.0
2014-Oct-14 20:33N 62°00' W 006°46'0 0.0
2014-Oct-14 19:33N 62°00' W 006°46'0 0.0
2014-Oct-14 18:33N 62°00' W 006°46'0 0.0
2014-Oct-14 17:33N 62°00' W 006°46'0 0.0
2014-Oct-14 16:33N 62°00' W 006°46'0 0.0
2014-Oct-14 15:33N 62°00' W 006°46'0 0.0
2014-Oct-14 14:33N 62°00' W 006°46'0 0.0
2014-Oct-14 13:33N 62°00' W 006°46'0 0.0
2014-Oct-14 12:33N 62°00' W 006°46'0 0.0
2014-Oct-14 11:33N 62°00' W 006°46'0 0.0
2014-Oct-14 10:33N 62°00' W 006°46'0 0.0
2014-Oct-14 09:33N 62°00' W 006°46'0 0.0
2014-Oct-14 08:33N 62°00' W 006°46'0 0.0
2014-Oct-14 07:33N 62°00' W 006°46'0 0.0
2014-Oct-14 06:33N 62°00' W 006°46'0 0.0
2014-Oct-14 05:33N 62°00' W 006°46'0 0.0
2014-Oct-14 04:33N 62°00' W 006°46'0 0.0
2014-Oct-14 03:33N 62°00' W 006°46'0 0.0
2014-Oct-14 02:33N 62°00' W 006°46'0 0.0
2014-Oct-14 01:33N 62°00' W 006°46'0 0.0
2014-Oct-14 00:33N 62°00' W 006°46'0 0.0
2014-Oct-13 23:33N 62°00' W 006°46'0 0.0
2014-Oct-13 22:33N 62°00' W 006°46'0 0.0
2014-Oct-13 21:33N 62°00' W 006°46'0 0.0
2014-Oct-13 20:33N 62°00' W 006°46'0 0.0
2014-Oct-13 19:33N 62°00' W 006°46'0 0.0
2014-Oct-13 18:33N 62°00' W 006°46'0 0.0
2014-Oct-13 17:33N 62°00' W 006°46'0 0.0
2014-Oct-13 16:33N 62°00' W 006°46'0 0.0
2014-Oct-13 15:33N 62°00' W 006°46'0 0.0
2014-Oct-13 14:33N 62°00' W 006°46'0 0.0
2014-Oct-13 13:33N 62°00' W 006°46'0 0.0
2014-Oct-13 12:33N 62°00' W 006°46'0 0.0
2014-Oct-13 11:33N 62°00' W 006°46'0 0.0
2014-Oct-13 10:33N 62°00' W 006°46'0 0.0
2014-Oct-13 09:33N 62°00' W 006°46'0 0.0
2014-Oct-13 08:33N 62°00' W 006°46'0 0.0
2014-Oct-13 07:33N 62°00' W 006°46'0 0.0
2014-Oct-13 06:33N 62°00' W 006°46'0 0.0
2014-Oct-13 05:33N 62°00' W 006°46'0 0.0
2014-Oct-13 04:33N 62°00' W 006°46'0 0.0
2014-Oct-13 03:33N 62°00' W 006°46'0 0.0
2014-Oct-13 02:33N 62°00' W 006°46'0 0.0
2014-Oct-13 01:33N 62°00' W 006°46'0 0.0
2014-Oct-13 00:33N 62°00' W 006°46'0 0.0
2014-Oct-12 23:33N 62°00' W 006°46'0 0.0
2014-Oct-12 22:33N 62°00' W 006°46'0 0.0
2014-Oct-12 21:33N 62°00' W 006°46'0 0.0
2014-Oct-12 20:33N 62°00' W 006°46'0 0.0
2014-Oct-12 19:33N 62°00' W 006°46'0 0.0
2014-Oct-12 18:33N 62°00' W 006°46'0 0.0
2014-Oct-12 17:33N 62°00' W 006°46'0 0.0
2014-Oct-12 16:33N 62°00' W 006°46'0 0.0
2014-Oct-12 15:33N 62°00' W 006°46'0 0.0
2014-Oct-12 14:33N 62°00' W 006°46'0 0.0
2014-Oct-12 13:33N 62°00' W 006°46'0 0.0
2014-Oct-12 12:33N 62°00' W 006°46'0 0.0
2014-Oct-12 11:33N 62°00' W 006°46'0 0.0
2014-Oct-12 10:33N 62°00' W 006°46'0 0.0
2014-Oct-12 09:33N 62°00' W 006°46'0 0.0
2014-Oct-12 08:33N 62°00' W 006°46'0 0.0
2014-Oct-12 07:33N 62°00' W 006°46'0 0.0
2014-Oct-12 06:33N 62°00' W 006°46'0 0.0
2014-Oct-12 05:33N 62°00' W 006°46'0 0.0
2014-Oct-12 04:33N 62°00' W 006°46'0 0.0
2014-Oct-12 03:33N 62°00' W 006°46'0 0.0
2014-Oct-12 02:33N 62°00' W 006°46'0 0.0
2014-Oct-12 01:33N 62°00' W 006°46'0 0.0
2014-Oct-12 00:33N 62°00' W 006°46'0 0.0
2014-Oct-11 23:33N 62°00' W 006°46'0 0.0
2014-Oct-11 22:33N 62°00' W 006°46'0 0.0
2014-Oct-11 21:33N 62°00' W 006°46'0 0.0
2014-Oct-11 20:33N 62°00' W 006°46'0 0.0
2014-Oct-11 19:33N 62°00' W 006°46'0 0.0
2014-Oct-11 18:33N 62°00' W 006°46'0 0.0
2014-Oct-11 17:33N 62°00' W 006°46'0 0.0
2014-Oct-11 16:33N 62°00' W 006°46'0 0.0
2014-Oct-11 15:33N 62°00' W 006°46'0 0.0
2014-Oct-11 14:33N 62°00' W 006°46'0 0.0
2014-Oct-11 13:33N 62°00' W 006°46'0 0.0
2014-Oct-11 12:33N 62°00' W 006°46'0 0.0
2014-Oct-11 11:33N 62°00' W 006°46'0 0.0
2014-Oct-11 10:33N 62°00' W 006°46'0 0.0
2014-Oct-11 09:33N 62°00' W 006°46'  

Dump ship's entire track history